sensor_id;sensor_type;location;lat;lon;timestamp;temperature;humidity
14182;DHT22;7171;50.936;6.764;2023-05-10T00:01:17;14.20;99.90
14182;DHT22;7171;50.936;6.764;2023-05-10T00:03:44;14.20;99.90
14182;DHT22;7171;50.936;6.764;2023-05-10T00:06:10;14.30;99.90
14182;DHT22;7171;50.936;6.764;2023-05-10T00:08:39;14.20;99.90
14182;DHT22;7171;50.936;6.764;2023-05-10T00:11:05;14.20;99.90
14182;DHT22;7171;50.936;6.764;2023-05-10T00:13:32;14.30;99.90
14182;DHT22;7171;50.936;6.764;2023-05-10T00:15:59;14.30;99.90
14182;DHT22;7171;50.936;6.764;2023-05-10T00:18:26;14.30;99.90
14182;DHT22;7171;50.936;6.764;2023-05-10T00:20:52;14.30;99.90
14182;DHT22;7171;50.936;6.764;2023-05-10T00:23:19;14.30;99.90
14182;DHT22;7171;50.936;6.764;2023-05-10T00:25:47;14.30;99.90
14182;DHT22;7171;50.936;6.764;2023-05-10T00:28:14;14.30;99.90
14182;DHT22;7171;50.936;6.764;2023-05-10T00:30:41;14.30;99.90
14182;DHT22;7171;50.936;6.764;2023-05-10T00:33:08;14.30;99.90
14182;DHT22;7171;50.936;6.764;2023-05-10T00:35:35;14.30;99.90
14182;DHT22;7171;50.936;6.764;2023-05-10T00:38:01;14.30;99.90
14182;DHT22;7171;50.936;6.764;2023-05-10T00:40:28;14.30;99.90
14182;DHT22;7171;50.936;6.764;2023-05-10T00:42:57;14.30;99.90
14182;DHT22;7171;50.936;6.764;2023-05-10T00:45:24;14.30;99.90
14182;DHT22;7171;50.936;6.764;2023-05-10T00:47:52;14.30;99.90
14182;DHT22;7171;50.936;6.764;2023-05-10T00:50:20;14.30;99.90
14182;DHT22;7171;50.936;6.764;2023-05-10T00:52:47;14.30;99.90
14182;DHT22;7171;50.936;6.764;2023-05-10T00:55:14;14.40;99.90
14182;DHT22;7171;50.936;6.764;2023-05-10T00:57:42;14.30;99.90
14182;DHT22;7171;50.936;6.764;2023-05-10T01:00:11;14.30;99.90
14182;DHT22;7171;50.936;6.764;2023-05-10T01:02:43;14.30;99.90
14182;DHT22;7171;50.936;6.764;2023-05-10T01:05:10;14.40;99.90
14182;DHT22;7171;50.936;6.764;2023-05-10T01:07:37;14.40;99.90
14182;DHT22;7171;50.936;6.764;2023-05-10T01:10:04;14.40;99.90
14182;DHT22;7171;50.936;6.764;2023-05-10T01:12:31;14.40;99.90
14182;DHT22;7171;50.936;6.764;2023-05-10T01:14:58;14.40;99.90
14182;DHT22;7171;50.936;6.764;2023-05-10T01:17:28;14.40;99.90
14182;DHT22;7171;50.936;6.764;2023-05-10T01:19:54;14.40;99.90
14182;DHT22;7171;50.936;6.764;2023-05-10T01:22:46;14.40;99.90
14182;DHT22;7171;50.936;6.764;2023-05-10T01:28:39;14.40;99.90
14182;DHT22;7171;50.936;6.764;2023-05-10T01:31:21;14.40;99.90
14182;DHT22;7171;50.936;6.764;2023-05-10T01:33:55;14.40;99.90
14182;DHT22;7171;50.936;6.764;2023-05-10T01:36:28;14.40;99.90
14182;DHT22;7171;50.936;6.764;2023-05-10T01:39:01;14.40;99.90
14182;DHT22;7171;50.936;6.764;2023-05-10T01:41:36;14.40;99.90
14182;DHT22;7171;50.936;6.764;2023-05-10T01:44:12;14.40;99.90
14182;DHT22;7171;50.936;6.764;2023-05-10T01:46:43;14.50;99.90
14182;DHT22;7171;50.936;6.764;2023-05-10T01:49:16;14.40;99.90
14182;DHT22;7171;50.936;6.764;2023-05-10T01:51:49;14.50;99.90
14182;DHT22;7171;50.936;6.764;2023-05-10T01:54:19;14.50;99.90
14182;DHT22;7171;50.936;6.764;2023-05-10T01:56:49;14.50;99.90
14182;DHT22;7171;50.936;6.764;2023-05-10T01:59:18;14.50;99.90
14182;DHT22;7171;50.936;6.764;2023-05-10T02:01:46;14.50;99.90
14182;DHT22;7171;50.936;6.764;2023-05-10T02:04:16;14.50;99.90
14182;DHT22;7171;50.936;6.764;2023-05-10T02:06:45;14.50;99.90
14182;DHT22;7171;50.936;6.764;2023-05-10T02:09:13;14.50;99.90
14182;DHT22;7171;50.936;6.764;2023-05-10T02:11:41;14.50;99.90
14182;DHT22;7171;50.936;6.764;2023-05-10T02:14:10;14.50;99.90
14182;DHT22;7171;50.936;6.764;2023-05-10T02:16:38;14.50;99.90
14182;DHT22;7171;50.936;6.764;2023-05-10T02:19:06;14.50;99.90
14182;DHT22;7171;50.936;6.764;2023-05-10T02:21:36;14.50;99.90
14182;DHT22;7171;50.936;6.764;2023-05-10T02:24:05;14.60;99.90
14182;DHT22;7171;50.936;6.764;2023-05-10T02:26:33;14.60;99.90
14182;DHT22;7171;50.936;6.764;2023-05-10T02:29:02;14.60;99.90
14182;DHT22;7171;50.936;6.764;2023-05-10T02:31:30;14.70;99.90
14182;DHT22;7171;50.936;6.764;2023-05-10T02:33:58;14.60;99.90
14182;DHT22;7171;50.936;6.764;2023-05-10T02:36:26;14.60;99.90
14182;DHT22;7171;50.936;6.764;2023-05-10T02:38:55;14.60;99.90
14182;DHT22;7171;50.936;6.764;2023-05-10T02:41:24;14.70;99.90
14182;DHT22;7171;50.936;6.764;2023-05-10T02:43:54;14.70;99.90
14182;DHT22;7171;50.936;6.764;2023-05-10T02:46:23;14.70;99.90
14182;DHT22;7171;50.936;6.764;2023-05-10T02:48:50;14.70;99.90
14182;DHT22;7171;50.936;6.764;2023-05-10T02:51:18;14.60;99.90
14182;DHT22;7171;50.936;6.764;2023-05-10T02:53:46;14.60;99.90
14182;DHT22;7171;50.936;6.764;2023-05-10T02:56:24;14.60;99.90
14182;DHT22;7171;50.936;6.764;2023-05-10T02:58:52;14.70;99.90
14182;DHT22;7171;50.936;6.764;2023-05-10T03:01:19;14.70;99.90
14182;DHT22;7171;50.936;6.764;2023-05-10T03:03:45;14.70;99.90
14182;DHT22;7171;50.936;6.764;2023-05-10T03:06:12;14.70;99.90
14182;DHT22;7171;50.936;6.764;2023-05-10T03:08:40;14.70;99.90
14182;DHT22;7171;50.936;6.764;2023-05-10T03:11:23;14.70;99.90
14182;DHT22;7171;50.936;6.764;2023-05-10T03:14:01;14.70;99.90
14182;DHT22;7171;50.936;6.764;2023-05-10T03:16:41;14.70;99.90
14182;DHT22;7171;50.936;6.764;2023-05-10T03:19:15;14.70;99.90
14182;DHT22;7171;50.936;6.764;2023-05-10T03:21:47;14.70;99.90
14182;DHT22;7171;50.936;6.764;2023-05-10T03:24:16;14.70;99.90
14182;DHT22;7171;50.936;6.764;2023-05-10T03:26:47;14.70;99.90
14182;DHT22;7171;50.936;6.764;2023-05-10T03:29:15;14.70;99.90
14182;DHT22;7171;50.936;6.764;2023-05-10T03:31:42;14.70;99.90
14182;DHT22;7171;50.936;6.764;2023-05-10T03:34:09;14.70;99.90
14182;DHT22;7171;50.936;6.764;2023-05-10T03:36:36;14.70;99.90
14182;DHT22;7171;50.936;6.764;2023-05-10T03:39:03;14.60;99.90
14182;DHT22;7171;50.936;6.764;2023-05-10T03:41:30;14.60;99.90
14182;DHT22;7171;50.936;6.764;2023-05-10T03:43:58;14.60;99.90
14182;DHT22;7171;50.936;6.764;2023-05-10T03:46:25;14.50;99.90
14182;DHT22;7171;50.936;6.764;2023-05-10T03:48:51;14.50;99.90
14182;DHT22;7171;50.936;6.764;2023-05-10T03:51:18;14.50;99.90
14182;DHT22;7171;50.936;6.764;2023-05-10T03:53:45;14.50;99.90
14182;DHT22;7171;50.936;6.764;2023-05-10T03:56:12;14.50;99.90
14182;DHT22;7171;50.936;6.764;2023-05-10T03:58:39;14.50;99.90
14182;DHT22;7171;50.936;6.764;2023-05-10T04:01:07;14.50;99.90
14182;DHT22;7171;50.936;6.764;2023-05-10T04:03:34;14.50;99.90
14182;DHT22;7171;50.936;6.764;2023-05-10T04:06:02;14.50;99.90
14182;DHT22;7171;50.936;6.764;2023-05-10T04:08:29;14.50;99.90
14182;DHT22;7171;50.936;6.764;2023-05-10T04:11:05;14.50;99.90
14182;DHT22;7171;50.936;6.764;2023-05-10T04:13:32;14.50;99.90
14182;DHT22;7171;50.936;6.764;2023-05-10T04:15:59;14.50;99.90
14182;DHT22;7171;50.936;6.764;2023-05-10T04:18:27;14.40;99.90
14182;DHT22;7171;50.936;6.764;2023-05-10T04:20:54;14.40;99.90
14182;DHT22;7171;50.936;6.764;2023-05-10T04:23:21;14.40;99.90
14182;DHT22;7171;50.936;6.764;2023-05-10T04:25:47;14.40;99.90
14182;DHT22;7171;50.936;6.764;2023-05-10T04:28:14;14.40;99.90
14182;DHT22;7171;50.936;6.764;2023-05-10T04:30:41;14.40;99.90
14182;DHT22;7171;50.936;6.764;2023-05-10T04:33:08;14.40;99.90
14182;DHT22;7171;50.936;6.764;2023-05-10T04:35:36;14.40;99.90
14182;DHT22;7171;50.936;6.764;2023-05-10T04:38:02;14.40;99.90
14182;DHT22;7171;50.936;6.764;2023-05-10T04:40:29;14.30;99.90
14182;DHT22;7171;50.936;6.764;2023-05-10T04:42:56;14.30;99.90
14182;DHT22;7171;50.936;6.764;2023-05-10T04:45:23;14.30;99.90
14182;DHT22;7171;50.936;6.764;2023-05-10T04:47:50;14.20;99.90
14182;DHT22;7171;50.936;6.764;2023-05-10T04:50:16;14.20;99.90
14182;DHT22;7171;50.936;6.764;2023-05-10T04:52:45;14.20;99.90
14182;DHT22;7171;50.936;6.764;2023-05-10T04:55:11;14.20;99.90
14182;DHT22;7171;50.936;6.764;2023-05-10T04:57:39;14.20;99.90
14182;DHT22;7171;50.936;6.764;2023-05-10T05:00:07;14.20;99.90
14182;DHT22;7171;50.936;6.764;2023-05-10T05:02:34;14.20;99.90
14182;DHT22;7171;50.936;6.764;2023-05-10T05:05:01;14.10;99.90
14182;DHT22;7171;50.936;6.764;2023-05-10T05:07:28;14.10;99.90
14182;DHT22;7171;50.936;6.764;2023-05-10T05:09:57;14.10;99.90
14182;DHT22;7171;50.936;6.764;2023-05-10T05:12:24;14.00;99.90
14182;DHT22;7171;50.936;6.764;2023-05-10T05:14:50;14.00;99.90
14182;DHT22;7171;50.936;6.764;2023-05-10T05:17:17;14.00;99.90
14182;DHT22;7171;50.936;6.764;2023-05-10T05:19:44;14.00;99.90
14182;DHT22;7171;50.936;6.764;2023-05-10T05:22:11;13.90;99.90
14182;DHT22;7171;50.936;6.764;2023-05-10T05:24:37;13.90;99.90
14182;DHT22;7171;50.936;6.764;2023-05-10T05:27:06;13.90;99.90
14182;DHT22;7171;50.936;6.764;2023-05-10T05:29:33;13.90;99.90
14182;DHT22;7171;50.936;6.764;2023-05-10T05:32:00;13.90;99.90
14182;DHT22;7171;50.936;6.764;2023-05-10T05:34:26;13.90;99.90
14182;DHT22;7171;50.936;6.764;2023-05-10T05:36:53;14.00;99.90
14182;DHT22;7171;50.936;6.764;2023-05-10T05:39:20;14.00;99.90
14182;DHT22;7171;50.936;6.764;2023-05-10T05:41:47;14.00;99.90
14182;DHT22;7171;50.936;6.764;2023-05-10T05:44:15;14.00;99.90
14182;DHT22;7171;50.936;6.764;2023-05-10T05:46:42;14.00;99.90
14182;DHT22;7171;50.936;6.764;2023-05-10T05:49:09;14.10;99.90
14182;DHT22;7171;50.936;6.764;2023-05-10T05:51:36;14.10;99.90
14182;DHT22;7171;50.936;6.764;2023-05-10T05:54:03;14.10;99.90
14182;DHT22;7171;50.936;6.764;2023-05-10T05:56:30;14.10;99.90
14182;DHT22;7171;50.936;6.764;2023-05-10T05:58:57;14.10;99.90
14182;DHT22;7171;50.936;6.764;2023-05-10T06:01:25;14.10;99.90
14182;DHT22;7171;50.936;6.764;2023-05-10T06:03:51;14.10;99.90
14182;DHT22;7171;50.936;6.764;2023-05-10T06:06:18;14.20;99.90
14182;DHT22;7171;50.936;6.764;2023-05-10T06:08:45;14.10;99.90
14182;DHT22;7171;50.936;6.764;2023-05-10T06:11:12;13.90;99.90
14182;DHT22;7171;50.936;6.764;2023-05-10T06:13:38;14.20;99.90
14182;DHT22;7171;50.936;6.764;2023-05-10T06:16:06;14.20;99.90
14182;DHT22;7171;50.936;6.764;2023-05-10T06:18:34;14.10;99.90
14182;DHT22;7171;50.936;6.764;2023-05-10T06:21:01;14.20;99.90
14182;DHT22;7171;50.936;6.764;2023-05-10T06:23:28;14.20;99.90
14182;DHT22;7171;50.936;6.764;2023-05-10T06:25:55;14.20;99.90
14182;DHT22;7171;50.936;6.764;2023-05-10T06:28:22;14.20;99.90
14182;DHT22;7171;50.936;6.764;2023-05-10T06:30:48;14.20;99.90
14182;DHT22;7171;50.936;6.764;2023-05-10T06:33:15;14.20;99.90
14182;DHT22;7171;50.936;6.764;2023-05-10T06:35:43;14.20;99.90
14182;DHT22;7171;50.936;6.764;2023-05-10T06:38:10;14.30;99.90
14182;DHT22;7171;50.936;6.764;2023-05-10T06:40:40;14.30;99.90
14182;DHT22;7171;50.936;6.764;2023-05-10T06:43:07;14.20;99.90
14182;DHT22;7171;50.936;6.764;2023-05-10T06:45:34;14.20;99.90
14182;DHT22;7171;50.936;6.764;2023-05-10T06:48:01;14.20;99.90
14182;DHT22;7171;50.936;6.764;2023-05-10T06:50:28;14.20;99.90
14182;DHT22;7171;50.936;6.764;2023-05-10T06:52:56;14.20;99.90
14182;DHT22;7171;50.936;6.764;2023-05-10T06:55:22;14.30;99.90
14182;DHT22;7171;50.936;6.764;2023-05-10T06:57:49;14.30;99.90
14182;DHT22;7171;50.936;6.764;2023-05-10T07:00:17;14.30;99.90
14182;DHT22;7171;50.936;6.764;2023-05-10T07:02:44;14.40;99.90
14182;DHT22;7171;50.936;6.764;2023-05-10T07:05:11;14.40;99.90
14182;DHT22;7171;50.936;6.764;2023-05-10T07:07:39;14.40;99.90
14182;DHT22;7171;50.936;6.764;2023-05-10T07:10:08;14.40;99.90
14182;DHT22;7171;50.936;6.764;2023-05-10T07:12:35;14.40;99.90
14182;DHT22;7171;50.936;6.764;2023-05-10T07:15:02;14.40;99.90
14182;DHT22;7171;50.936;6.764;2023-05-10T07:17:28;14.50;99.90
14182;DHT22;7171;50.936;6.764;2023-05-10T07:19:55;14.50;99.90
14182;DHT22;7171;50.936;6.764;2023-05-10T07:22:22;14.50;99.90
14182;DHT22;7171;50.936;6.764;2023-05-10T07:24:49;14.60;99.90
14182;DHT22;7171;50.936;6.764;2023-05-10T07:27:17;14.60;99.90
14182;DHT22;7171;50.936;6.764;2023-05-10T07:29:43;14.60;99.90
14182;DHT22;7171;50.936;6.764;2023-05-10T07:32:10;14.70;99.90
14182;DHT22;7171;50.936;6.764;2023-05-10T07:34:37;14.70;99.90
14182;DHT22;7171;50.936;6.764;2023-05-10T07:37:04;14.80;99.90
14182;DHT22;7171;50.936;6.764;2023-05-10T07:39:31;14.80;99.90
14182;DHT22;7171;50.936;6.764;2023-05-10T07:41:58;14.80;99.90
14182;DHT22;7171;50.936;6.764;2023-05-10T07:46:53;14.70;99.90
14182;DHT22;7171;50.936;6.764;2023-05-10T07:49:21;14.90;99.90
14182;DHT22;7171;50.936;6.764;2023-05-10T07:56:45;15.10;99.90
14182;DHT22;7171;50.936;6.764;2023-05-10T07:59:15;15.10;99.90
14182;DHT22;7171;50.936;6.764;2023-05-10T08:01:44;15.10;99.90
14182;DHT22;7171;50.936;6.764;2023-05-10T08:04:10;15.10;99.90
14182;DHT22;7171;50.936;6.764;2023-05-10T08:06:38;15.00;99.90
14182;DHT22;7171;50.936;6.764;2023-05-10T08:09:04;15.00;99.90
14182;DHT22;7171;50.936;6.764;2023-05-10T08:11:31;15.10;99.90
14182;DHT22;7171;50.936;6.764;2023-05-10T08:13:58;15.10;99.90
14182;DHT22;7171;50.936;6.764;2023-05-10T08:16:25;15.00;99.90
14182;DHT22;7171;50.936;6.764;2023-05-10T08:18:53;15.00;99.90
14182;DHT22;7171;50.936;6.764;2023-05-10T08:21:20;15.00;99.90
14182;DHT22;7171;50.936;6.764;2023-05-10T08:23:47;15.10;99.90
14182;DHT22;7171;50.936;6.764;2023-05-10T08:26:14;15.10;99.90
14182;DHT22;7171;50.936;6.764;2023-05-10T08:28:41;15.10;99.90
14182;DHT22;7171;50.936;6.764;2023-05-10T08:31:07;15.10;99.90
14182;DHT22;7171;50.936;6.764;2023-05-10T08:33:34;15.10;99.90
14182;DHT22;7171;50.936;6.764;2023-05-10T08:36:02;15.10;99.90
14182;DHT22;7171;50.936;6.764;2023-05-10T08:38:29;15.10;99.90
14182;DHT22;7171;50.936;6.764;2023-05-10T08:40:56;15.20;99.90
14182;DHT22;7171;50.936;6.764;2023-05-10T08:43:26;15.20;99.90
14182;DHT22;7171;50.936;6.764;2023-05-10T08:45:54;15.20;99.90
14182;DHT22;7171;50.936;6.764;2023-05-10T08:48:23;15.80;99.90
14182;DHT22;7171;50.936;6.764;2023-05-10T08:53:21;15.20;99.90
14182;DHT22;7171;50.936;6.764;2023-05-10T08:55:49;15.30;99.90
14182;DHT22;7171;50.936;6.764;2023-05-10T08:58:16;15.30;99.90
14182;DHT22;7171;50.936;6.764;2023-05-10T09:00:45;15.30;99.90
14182;DHT22;7171;50.936;6.764;2023-05-10T09:03:12;15.30;99.90
14182;DHT22;7171;50.936;6.764;2023-05-10T09:05:40;15.40;99.90
14182;DHT22;7171;50.936;6.764;2023-05-10T09:08:07;15.40;99.90
14182;DHT22;7171;50.936;6.764;2023-05-10T09:10:37;15.40;99.90
14182;DHT22;7171;50.936;6.764;2023-05-10T09:13:05;15.50;99.90
14182;DHT22;7171;50.936;6.764;2023-05-10T09:15:32;15.50;99.90
14182;DHT22;7171;50.936;6.764;2023-05-10T09:17:59;15.50;99.90
14182;DHT22;7171;50.936;6.764;2023-05-10T09:20:27;15.30;99.90
14182;DHT22;7171;50.936;6.764;2023-05-10T09:22:54;15.30;99.90
14182;DHT22;7171;50.936;6.764;2023-05-10T09:25:21;15.30;99.90
14182;DHT22;7171;50.936;6.764;2023-05-10T09:27:49;15.20;99.90
14182;DHT22;7171;50.936;6.764;2023-05-10T09:30:18;15.20;99.90
14182;DHT22;7171;50.936;6.764;2023-05-10T09:32:50;15.20;99.90
14182;DHT22;7171;50.936;6.764;2023-05-10T09:35:18;15.20;99.90
14182;DHT22;7171;50.936;6.764;2023-05-10T09:37:47;15.20;99.90
14182;DHT22;7171;50.936;6.764;2023-05-10T09:40:16;15.30;99.90
14182;DHT22;7171;50.936;6.764;2023-05-10T09:42:53;15.30;99.90
14182;DHT22;7171;50.936;6.764;2023-05-10T09:45:20;15.40;99.90
14182;DHT22;7171;50.936;6.764;2023-05-10T09:47:47;15.40;99.90
14182;DHT22;7171;50.936;6.764;2023-05-10T09:50:14;15.50;99.90
14182;DHT22;7171;50.936;6.764;2023-05-10T09:52:49;15.50;99.90
14182;DHT22;7171;50.936;6.764;2023-05-10T09:55:18;15.60;99.90
14182;DHT22;7171;50.936;6.764;2023-05-10T09:57:45;15.60;99.90
14182;DHT22;7171;50.936;6.764;2023-05-10T10:00:18;15.70;99.90
14182;DHT22;7171;50.936;6.764;2023-05-10T10:02:47;15.20;99.90
14182;DHT22;7171;50.936;6.764;2023-05-10T10:05:14;15.80;99.90
14182;DHT22;7171;50.936;6.764;2023-05-10T10:07:41;15.80;99.90
14182;DHT22;7171;50.936;6.764;2023-05-10T10:10:09;15.90;99.90
14182;DHT22;7171;50.936;6.764;2023-05-10T10:12:39;15.90;99.90
14182;DHT22;7171;50.936;6.764;2023-05-10T10:15:07;15.90;99.90
14182;DHT22;7171;50.936;6.764;2023-05-10T10:17:36;16.00;99.90
14182;DHT22;7171;50.936;6.764;2023-05-10T10:20:05;16.00;99.90
14182;DHT22;7171;50.936;6.764;2023-05-10T10:22:32;15.90;99.90
14182;DHT22;7171;50.936;6.764;2023-05-10T10:24:59;15.90;99.90
14182;DHT22;7171;50.936;6.764;2023-05-10T10:27:35;15.90;99.90
14182;DHT22;7171;50.936;6.764;2023-05-10T10:30:10;15.90;99.90
14182;DHT22;7171;50.936;6.764;2023-05-10T10:35:45;15.80;99.90
14182;DHT22;7171;50.936;6.764;2023-05-10T10:38:13;15.80;99.90
14182;DHT22;7171;50.936;6.764;2023-05-10T10:40:39;15.70;99.90
14182;DHT22;7171;50.936;6.764;2023-05-10T10:43:22;15.60;99.90
14182;DHT22;7171;50.936;6.764;2023-05-10T10:46:11;15.60;99.90
14182;DHT22;7171;50.936;6.764;2023-05-10T10:48:40;15.60;99.90
14182;DHT22;7171;50.936;6.764;2023-05-10T10:51:07;15.50;99.90
14182;DHT22;7171;50.936;6.764;2023-05-10T10:53:34;15.50;99.90
14182;DHT22;7171;50.936;6.764;2023-05-10T10:56:08;15.60;99.90
14182;DHT22;7171;50.936;6.764;2023-05-10T10:58:36;15.60;99.90
14182;DHT22;7171;50.936;6.764;2023-05-10T11:01:10;15.70;99.90
14182;DHT22;7171;50.936;6.764;2023-05-10T11:03:37;15.80;99.90
14182;DHT22;7171;50.936;6.764;2023-05-10T11:06:05;15.80;99.90
14182;DHT22;7171;50.936;6.764;2023-05-10T11:08:41;15.90;99.90
14182;DHT22;7171;50.936;6.764;2023-05-10T11:11:08;16.00;99.90
14182;DHT22;7171;50.936;6.764;2023-05-10T11:13:39;16.00;99.90
14182;DHT22;7171;50.936;6.764;2023-05-10T11:16:14;16.00;99.90
14182;DHT22;7171;50.936;6.764;2023-05-10T11:18:53;16.00;99.90
14182;DHT22;7171;50.936;6.764;2023-05-10T11:21:21;16.00;99.90
14182;DHT22;7171;50.936;6.764;2023-05-10T11:23:50;16.00;99.90
14182;DHT22;7171;50.936;6.764;2023-05-10T11:26:17;16.00;99.90
14182;DHT22;7171;50.936;6.764;2023-05-10T11:28:45;16.00;99.90
14182;DHT22;7171;50.936;6.764;2023-05-10T11:31:14;16.10;99.90
14182;DHT22;7171;50.936;6.764;2023-05-10T11:33:43;16.10;99.90
14182;DHT22;7171;50.936;6.764;2023-05-10T11:36:11;16.10;99.90
14182;DHT22;7171;50.936;6.764;2023-05-10T11:38:39;16.20;99.90
14182;DHT22;7171;50.936;6.764;2023-05-10T11:41:08;16.20;99.90
14182;DHT22;7171;50.936;6.764;2023-05-10T11:43:37;16.20;99.90
14182;DHT22;7171;50.936;6.764;2023-05-10T11:46:05;16.30;99.90
14182;DHT22;7171;50.936;6.764;2023-05-10T11:48:32;16.30;99.90
14182;DHT22;7171;50.936;6.764;2023-05-10T11:51:00;16.30;99.90
14182;DHT22;7171;50.936;6.764;2023-05-10T11:53:27;16.40;99.90
14182;DHT22;7171;50.936;6.764;2023-05-10T11:55:55;16.40;99.90
14182;DHT22;7171;50.936;6.764;2023-05-10T11:58:28;16.40;99.90
14182;DHT22;7171;50.936;6.764;2023-05-10T12:00:55;16.50;99.90
14182;DHT22;7171;50.936;6.764;2023-05-10T12:03:22;16.50;99.90
14182;DHT22;7171;50.936;6.764;2023-05-10T12:05:49;16.50;99.90
14182;DHT22;7171;50.936;6.764;2023-05-10T12:08:19;16.60;99.90
14182;DHT22;7171;50.936;6.764;2023-05-10T12:10:46;16.60;99.90
14182;DHT22;7171;50.936;6.764;2023-05-10T12:13:14;16.60;99.90
14182;DHT22;7171;50.936;6.764;2023-05-10T12:15:42;16.60;99.90
14182;DHT22;7171;50.936;6.764;2023-05-10T12:18:09;16.60;99.90
14182;DHT22;7171;50.936;6.764;2023-05-10T12:20:37;16.60;99.90
14182;DHT22;7171;50.936;6.764;2023-05-10T12:23:04;16.60;99.90
14182;DHT22;7171;50.936;6.764;2023-05-10T12:25:32;16.60;99.90
14182;DHT22;7171;50.936;6.764;2023-05-10T12:28:02;16.60;99.90
14182;DHT22;7171;50.936;6.764;2023-05-10T12:30:32;16.60;99.90
14182;DHT22;7171;50.936;6.764;2023-05-10T12:33:00;16.60;99.90
14182;DHT22;7171;50.936;6.764;2023-05-10T12:35:30;16.70;99.90
14182;DHT22;7171;50.936;6.764;2023-05-10T12:37:57;16.70;99.90
14182;DHT22;7171;50.936;6.764;2023-05-10T12:40:24;16.80;99.90
14182;DHT22;7171;50.936;6.764;2023-05-10T12:42:51;16.80;99.90
14182;DHT22;7171;50.936;6.764;2023-05-10T12:45:18;16.90;99.90
14182;DHT22;7171;50.936;6.764;2023-05-10T12:47:46;16.90;99.90
14182;DHT22;7171;50.936;6.764;2023-05-10T12:50:13;17.00;99.90
14182;DHT22;7171;50.936;6.764;2023-05-10T12:52:40;17.10;99.90
14182;DHT22;7171;50.936;6.764;2023-05-10T12:55:07;17.10;99.90
14182;DHT22;7171;50.936;6.764;2023-05-10T12:57:34;17.20;99.90
14182;DHT22;7171;50.936;6.764;2023-05-10T13:00:01;17.20;99.90
14182;DHT22;7171;50.936;6.764;2023-05-10T13:02:28;17.20;99.90
14182;DHT22;7171;50.936;6.764;2023-05-10T13:04:56;17.30;99.90
14182;DHT22;7171;50.936;6.764;2023-05-10T13:07:23;17.30;99.90
14182;DHT22;7171;50.936;6.764;2023-05-10T13:09:50;17.30;99.90
14182;DHT22;7171;50.936;6.764;2023-05-10T13:12:16;17.30;99.90
14182;DHT22;7171;50.936;6.764;2023-05-10T13:14:43;17.40;99.90
14182;DHT22;7171;50.936;6.764;2023-05-10T13:17:10;17.40;99.90
14182;DHT22;7171;50.936;6.764;2023-05-10T13:19:37;17.50;99.90
14182;DHT22;7171;50.936;6.764;2023-05-10T13:22:05;17.60;99.90
14182;DHT22;7171;50.936;6.764;2023-05-10T13:24:31;17.70;99.90
14182;DHT22;7171;50.936;6.764;2023-05-10T13:26:58;17.80;99.90
14182;DHT22;7171;50.936;6.764;2023-05-10T13:29:25;17.90;99.90
14182;DHT22;7171;50.936;6.764;2023-05-10T13:31:52;18.00;99.90
14182;DHT22;7171;50.936;6.764;2023-05-10T13:34:18;18.10;99.90
14182;DHT22;7171;50.936;6.764;2023-05-10T13:36:46;18.20;99.90
14182;DHT22;7171;50.936;6.764;2023-05-10T13:39:15;18.20;99.90
14182;DHT22;7171;50.936;6.764;2023-05-10T13:41:42;18.20;99.90
14182;DHT22;7171;50.936;6.764;2023-05-10T13:44:11;18.30;99.90
14182;DHT22;7171;50.936;6.764;2023-05-10T13:46:38;18.30;99.90
14182;DHT22;7171;50.936;6.764;2023-05-10T13:49:05;18.30;99.90
14182;DHT22;7171;50.936;6.764;2023-05-10T13:51:32;18.30;99.90
14182;DHT22;7171;50.936;6.764;2023-05-10T13:53:59;18.30;99.90
14182;DHT22;7171;50.936;6.764;2023-05-10T13:56:28;18.40;99.90
14182;DHT22;7171;50.936;6.764;2023-05-10T13:58:56;18.40;99.90
14182;DHT22;7171;50.936;6.764;2023-05-10T14:01:22;18.50;99.90
14182;DHT22;7171;50.936;6.764;2023-05-10T14:03:49;18.50;99.90
14182;DHT22;7171;50.936;6.764;2023-05-10T14:06:16;18.50;99.90
14182;DHT22;7171;50.936;6.764;2023-05-10T14:08:43;18.60;99.90
14182;DHT22;7171;50.936;6.764;2023-05-10T14:11:10;18.60;99.90
14182;DHT22;7171;50.936;6.764;2023-05-10T14:13:38;18.60;99.90
14182;DHT22;7171;50.936;6.764;2023-05-10T14:16:05;18.70;99.90
14182;DHT22;7171;50.936;6.764;2023-05-10T14:18:32;18.90;99.90
14182;DHT22;7171;50.936;6.764;2023-05-10T14:20:59;19.00;99.90
14182;DHT22;7171;50.936;6.764;2023-05-10T14:23:26;19.10;99.90
14182;DHT22;7171;50.936;6.764;2023-05-10T14:25:54;19.10;99.90
14182;DHT22;7171;50.936;6.764;2023-05-10T14:28:21;19.10;99.90
14182;DHT22;7171;50.936;6.764;2023-05-10T14:30:50;19.10;99.90
14182;DHT22;7171;50.936;6.764;2023-05-10T14:33:17;19.10;99.90
14182;DHT22;7171;50.936;6.764;2023-05-10T14:35:44;19.10;99.90
14182;DHT22;7171;50.936;6.764;2023-05-10T14:38:12;19.10;99.90
14182;DHT22;7171;50.936;6.764;2023-05-10T14:40:39;19.00;99.90
14182;DHT22;7171;50.936;6.764;2023-05-10T14:43:05;19.00;99.90
14182;DHT22;7171;50.936;6.764;2023-05-10T14:45:32;19.00;99.90
14182;DHT22;7171;50.936;6.764;2023-05-10T14:48:01;19.00;99.90
14182;DHT22;7171;50.936;6.764;2023-05-10T14:50:30;19.00;99.90
14182;DHT22;7171;50.936;6.764;2023-05-10T14:52:56;19.10;99.90
14182;DHT22;7171;50.936;6.764;2023-05-10T14:55:23;19.10;99.90
14182;DHT22;7171;50.936;6.764;2023-05-10T14:57:50;19.10;99.90
14182;DHT22;7171;50.936;6.764;2023-05-10T15:00:17;19.10;99.90
14182;DHT22;7171;50.936;6.764;2023-05-10T15:02:45;19.10;99.90
14182;DHT22;7171;50.936;6.764;2023-05-10T15:05:14;19.00;99.90
14182;DHT22;7171;50.936;6.764;2023-05-10T15:07:40;19.00;99.90
14182;DHT22;7171;50.936;6.764;2023-05-10T15:10:09;18.90;99.90
14182;DHT22;7171;50.936;6.764;2023-05-10T15:12:36;18.90;99.90
14182;DHT22;7171;50.936;6.764;2023-05-10T15:15:03;18.80;99.90
14182;DHT22;7171;50.936;6.764;2023-05-10T15:17:30;18.80;99.90
14182;DHT22;7171;50.936;6.764;2023-05-10T15:19:57;18.70;99.90
14182;DHT22;7171;50.936;6.764;2023-05-10T15:22:25;18.60;99.90
14182;DHT22;7171;50.936;6.764;2023-05-10T15:24:53;18.60;99.90
14182;DHT22;7171;50.936;6.764;2023-05-10T15:27:20;18.60;99.90
14182;DHT22;7171;50.936;6.764;2023-05-10T15:29:47;18.50;99.90
14182;DHT22;7171;50.936;6.764;2023-05-10T15:32:14;18.50;99.90
14182;DHT22;7171;50.936;6.764;2023-05-10T15:34:41;18.50;99.90
14182;DHT22;7171;50.936;6.764;2023-05-10T15:37:07;18.50;99.90
14182;DHT22;7171;50.936;6.764;2023-05-10T15:39:36;18.40;99.90
14182;DHT22;7171;50.936;6.764;2023-05-10T15:42:03;18.40;99.90
14182;DHT22;7171;50.936;6.764;2023-05-10T15:44:30;18.40;99.90
14182;DHT22;7171;50.936;6.764;2023-05-10T15:46:59;18.40;99.90
14182;DHT22;7171;50.936;6.764;2023-05-10T15:49:25;18.40;99.90
14182;DHT22;7171;50.936;6.764;2023-05-10T15:51:52;18.40;99.90
14182;DHT22;7171;50.936;6.764;2023-05-10T15:54:19;18.30;99.90
14182;DHT22;7171;50.936;6.764;2023-05-10T15:56:47;18.30;99.90
14182;DHT22;7171;50.936;6.764;2023-05-10T15:59:14;18.20;99.90
14182;DHT22;7171;50.936;6.764;2023-05-10T16:01:41;18.20;99.90
14182;DHT22;7171;50.936;6.764;2023-05-10T16:04:07;18.20;99.90
14182;DHT22;7171;50.936;6.764;2023-05-10T16:06:35;18.30;99.90